createdAt,value
2018-12-11T00:02:14.675Z,5.20
2018-12-11T00:04:43.346Z,5.20
2018-12-11T00:07:12.157Z,5.20
2018-12-11T00:09:40.342Z,5.20
2018-12-11T00:12:08.578Z,5.20
2018-12-11T00:14:36.916Z,5.20
2018-12-11T00:17:05.350Z,5.30
2018-12-11T00:19:33.516Z,5.30
2018-12-11T00:22:01.795Z,5.20
2018-12-11T00:24:30.008Z,5.20
2018-12-11T00:26:58.883Z,5.10
2018-12-11T00:29:27.066Z,5.10
2018-12-11T00:31:55.254Z,5.10
2018-12-11T00:34:23.415Z,5.00
2018-12-11T00:36:51.604Z,5.00
2018-12-11T00:39:19.933Z,5.00
2018-12-11T00:41:48.090Z,5.00
2018-12-11T00:44:16.254Z,5.00
2018-12-11T00:46:44.385Z,4.90
2018-12-11T00:49:12.580Z,4.90
2018-12-11T00:51:40.794Z,4.90
2018-12-11T00:54:09.028Z,4.90
2018-12-11T00:56:37.435Z,4.90
2018-12-11T00:59:05.702Z,4.90
2018-12-11T01:01:34.000Z,4.90
2018-12-11T01:04:02.318Z,4.80
2018-12-11T01:06:30.572Z,4.80
2018-12-11T01:08:58.790Z,4.80
2018-12-11T01:11:26.964Z,4.80
2018-12-11T01:13:55.215Z,4.80
2018-12-11T01:16:23.379Z,4.70
2018-12-11T01:18:51.564Z,4.70
2018-12-11T01:21:19.861Z,4.70
2018-12-11T01:23:48.143Z,4.70
2018-12-11T01:26:16.301Z,4.70
2018-12-11T01:28:44.593Z,4.70
2018-12-11T01:31:12.824Z,4.70
2018-12-11T01:33:41.039Z,4.70
2018-12-11T01:36:09.294Z,4.70
2018-12-11T01:38:37.554Z,4.60
2018-12-11T01:41:05.812Z,4.60
2018-12-11T01:43:34.074Z,4.70
2018-12-11T01:46:02.232Z,4.60
2018-12-11T01:48:30.453Z,4.60
2018-12-11T01:50:58.625Z,4.70
2018-12-11T01:53:26.937Z,4.60
2018-12-11T01:55:55.113Z,4.60
2018-12-11T01:58:23.340Z,4.60
2018-12-11T02:00:51.584Z,4.60
2018-12-11T02:03:19.813Z,4.70
2018-12-11T02:05:47.982Z,4.60
2018-12-11T02:08:16.259Z,4.70
2018-12-11T02:10:44.465Z,4.70
2018-12-11T02:13:12.811Z,4.70
2018-12-11T02:15:41.057Z,4.70
2018-12-11T02:18:09.300Z,4.70
2018-12-11T02:20:37.617Z,4.70
2018-12-11T02:23:05.799Z,4.70
2018-12-11T02:25:34.009Z,4.70
2018-12-11T02:28:02.270Z,4.70
2018-12-11T02:30:30.635Z,4.70
2018-12-11T02:32:58.951Z,4.60
2018-12-11T02:35:27.238Z,4.60
2018-12-11T02:37:55.402Z,4.60
2018-12-11T02:40:23.542Z,4.60
2018-12-11T02:42:51.727Z,4.60
2018-12-11T02:47:54.511Z,4.50
2018-12-11T02:50:22.690Z,4.50
2018-12-11T02:52:51.023Z,4.50
2018-12-11T02:55:19.316Z,4.50
2018-12-11T02:57:47.606Z,4.50
2018-12-11T03:00:15.967Z,4.50
2018-12-11T03:02:44.266Z,4.50
2018-12-11T03:06:37.094Z,4.50
2018-12-11T03:09:07.017Z,4.50
2018-12-11T03:11:35.415Z,4.50
2018-12-11T03:14:03.795Z,4.60
2018-12-11T03:16:31.999Z,4.60
2018-12-11T03:19:00.161Z,4.60
2018-12-11T03:21:28.465Z,4.60
2018-12-11T03:23:56.637Z,4.60
2018-12-11T03:26:25.010Z,4.60
2018-12-11T03:28:53.167Z,4.60
2018-12-11T03:31:21.528Z,4.60
2018-12-11T03:33:49.794Z,4.60
2018-12-11T03:36:18.079Z,4.60
2018-12-11T03:38:46.255Z,4.60
2018-12-11T03:41:14.508Z,4.60
2018-12-11T03:43:42.679Z,4.50
2018-12-11T03:46:10.907Z,4.50
2018-12-11T03:48:39.088Z,4.60
2018-12-11T03:51:07.302Z,4.50
2018-12-11T03:53:35.450Z,4.50
2018-12-11T03:56:03.848Z,4.50
2018-12-11T03:58:32.140Z,4.50
2018-12-11T04:01:00.437Z,4.50
2018-12-11T04:03:28.757Z,4.50
2018-12-11T04:05:56.964Z,4.50
2018-12-11T04:08:25.550Z,4.30
2018-12-11T04:13:21.795Z,4.30
2018-12-11T04:15:50.109Z,4.30
2018-12-11T04:18:18.324Z,4.20
2018-12-11T04:20:46.471Z,4.30
2018-12-11T04:23:14.830Z,4.20
2018-12-11T04:25:43.045Z,4.30
2018-12-11T04:28:11.354Z,4.30
2018-12-11T04:30:39.554Z,4.20
2018-12-11T04:33:07.821Z,4.10
2018-12-11T04:35:36.055Z,4.20
2018-12-11T04:38:04.383Z,4.20
2018-12-11T04:40:32.747Z,4.10
2018-12-11T04:43:00.989Z,4.20
2018-12-11T04:45:29.351Z,4.10
2018-12-11T04:47:57.600Z,4.10
2018-12-11T04:52:53.796Z,4.10
2018-12-11T04:55:22.092Z,4.10
2018-12-11T04:57:50.288Z,4.10
2018-12-11T05:00:18.661Z,4.20
2018-12-11T05:02:46.925Z,4.20
2018-12-11T05:05:15.309Z,4.20
2018-12-11T05:07:43.574Z,4.20
2018-12-11T05:10:11.907Z,4.20
2018-12-11T05:12:40.130Z,4.20
2018-12-11T05:15:08.504Z,4.10
2018-12-11T05:17:36.681Z,4.20
2018-12-11T05:20:05.261Z,4.20
2018-12-11T05:22:33.425Z,4.20
2018-12-11T05:25:01.761Z,4.30
2018-12-11T05:27:30.093Z,4.30
2018-12-11T05:29:58.350Z,4.30
2018-12-11T05:32:26.590Z,4.30
2018-12-11T05:34:54.821Z,4.30
2018-12-11T05:37:23.193Z,4.30
2018-12-11T05:39:51.383Z,4.30
2018-12-11T05:42:19.621Z,4.40
2018-12-11T05:44:47.820Z,4.30
2018-12-11T05:47:16.093Z,4.30
2018-12-11T05:49:44.322Z,4.40
2018-12-11T05:52:12.720Z,4.40
2018-12-11T05:54:40.913Z,4.40
2018-12-11T05:57:09.076Z,4.40
2018-12-11T05:59:37.278Z,4.50
2018-12-11T06:02:05.511Z,4.50
2018-12-11T06:04:33.661Z,4.40
2018-12-11T06:07:01.891Z,4.50
2018-12-11T06:09:30.151Z,4.50
2018-12-11T06:11:58.356Z,4.50
2018-12-11T06:14:26.584Z,4.50
2018-12-11T06:16:54.777Z,4.50
2018-12-11T06:19:23.074Z,4.50
2018-12-11T06:21:51.341Z,4.50
2018-12-11T06:24:19.518Z,4.50
2018-12-11T06:26:47.778Z,4.50
2018-12-11T06:29:16.069Z,4.50
2018-12-11T06:31:44.453Z,4.40
2018-12-11T06:34:12.807Z,4.40
2018-12-11T06:36:41.157Z,4.40
2018-12-11T06:39:09.402Z,4.50
2018-12-11T06:41:37.656Z,4.50
2018-12-11T06:44:05.935Z,4.50
2018-12-11T06:46:34.190Z,4.50
2018-12-11T06:49:02.363Z,4.50
2018-12-11T06:51:30.562Z,4.50
2018-12-11T06:53:58.846Z,4.50
2018-12-11T06:56:27.054Z,4.50
2018-12-11T06:58:55.262Z,4.50
2018-12-11T07:01:23.446Z,4.50
2018-12-11T07:03:51.697Z,4.50
2018-12-11T07:06:20.030Z,4.50
2018-12-11T07:08:48.301Z,4.50
2018-12-11T07:11:16.583Z,4.60
2018-12-11T07:13:44.921Z,4.60
2018-12-11T07:16:13.239Z,4.60
2018-12-11T07:18:41.717Z,4.60
2018-12-11T07:21:10.085Z,4.60
2018-12-11T07:23:38.364Z,4.60
2018-12-11T07:26:06.899Z,4.60
2018-12-11T07:28:35.258Z,4.70
2018-12-11T07:31:03.446Z,4.70
2018-12-11T07:33:31.735Z,4.70
2018-12-11T07:36:00.045Z,4.70
2018-12-11T07:38:28.382Z,4.60
2018-12-11T07:40:56.613Z,4.70
2018-12-11T07:43:24.912Z,4.60
2018-12-11T07:45:53.184Z,4.50
2018-12-11T07:48:21.446Z,4.50
2018-12-11T07:50:49.790Z,4.50
2018-12-11T07:53:18.064Z,4.40
2018-12-11T07:55:46.283Z,4.40
2018-12-11T07:58:14.458Z,4.40
2018-12-11T08:00:42.738Z,4.40
2018-12-11T08:03:10.966Z,4.30
2018-12-11T08:05:39.182Z,4.30
2018-12-11T08:08:09.578Z,4.30
2018-12-11T08:10:37.881Z,4.30
2018-12-11T08:13:06.069Z,4.30
2018-12-11T08:15:34.406Z,4.30
2018-12-11T08:18:02.636Z,4.30
2018-12-11T08:20:30.824Z,4.30
2018-12-11T08:22:59.124Z,4.40
2018-12-11T08:27:55.326Z,4.40
2018-12-11T08:30:23.547Z,4.40
2018-12-11T08:32:51.843Z,4.50
2018-12-11T08:35:20.210Z,4.50
2018-12-11T08:37:48.394Z,4.60
2018-12-11T08:40:16.584Z,4.60
2018-12-11T08:42:44.954Z,4.60
2018-12-11T08:45:13.211Z,4.70
2018-12-11T08:47:41.474Z,4.70
2018-12-11T08:50:09.845Z,4.70
2018-12-11T08:52:38.123Z,4.70
2018-12-11T08:55:06.546Z,4.70
2018-12-11T08:57:34.983Z,4.80
2018-12-11T09:00:03.461Z,4.80
2018-12-11T09:02:31.730Z,4.80
2018-12-11T09:04:59.943Z,4.90
2018-12-11T09:07:28.178Z,4.80
2018-12-11T09:09:56.397Z,4.90
2018-12-11T09:12:24.671Z,4.90
2018-12-11T09:14:53.000Z,5.00
2018-12-11T09:17:21.206Z,5.00
2018-12-11T09:19:49.506Z,5.00
2018-12-11T09:22:17.771Z,5.10
2018-12-11T09:24:46.133Z,5.10
2018-12-11T09:27:14.374Z,5.10
2018-12-11T09:29:42.581Z,5.20
2018-12-11T09:32:10.873Z,5.10
2018-12-11T09:34:39.068Z,5.10
2018-12-11T09:37:07.405Z,5.10
2018-12-11T09:39:35.691Z,5.20
2018-12-11T09:42:07.040Z,5.20
2018-12-11T09:44:34.194Z,5.20
2018-12-11T09:47:02.386Z,5.30
2018-12-11T09:49:30.637Z,5.30
2018-12-11T09:51:58.998Z,5.30
2018-12-11T09:54:27.317Z,5.40
2018-12-11T09:56:55.550Z,5.40
2018-12-11T09:59:23.771Z,5.30
2018-12-11T10:01:52.370Z,5.30
2018-12-11T10:04:20.629Z,5.20
2018-12-11T10:06:48.794Z,5.30
2018-12-11T10:09:17.058Z,5.30
2018-12-11T10:11:45.355Z,5.30
2018-12-11T10:14:13.536Z,5.30
2018-12-11T10:16:41.795Z,5.30
2018-12-11T10:19:10.058Z,5.30
2018-12-11T10:21:38.241Z,5.30
2018-12-11T10:24:06.603Z,5.30
2018-12-11T10:26:34.864Z,5.30
2018-12-11T10:29:03.201Z,5.30
2018-12-11T10:31:31.421Z,5.30
2018-12-11T10:33:59.740Z,5.30
2018-12-11T10:36:28.106Z,5.30
2018-12-11T10:38:56.249Z,5.30
2018-12-11T10:41:24.504Z,5.30
2018-12-11T10:43:59.299Z,5.30
2018-12-11T10:46:33.641Z,5.20
2018-12-11T10:48:57.613Z,5.20
2018-12-11T10:51:25.803Z,5.30
2018-12-11T10:53:53.975Z,5.30
2018-12-11T10:56:22.172Z,5.30
2018-12-11T10:58:50.426Z,5.30
2018-12-11T11:01:19.295Z,5.20
2018-12-11T11:03:48.057Z,5.30
2018-12-11T11:06:16.421Z,5.30
2018-12-11T11:08:44.610Z,5.40
2018-12-11T11:11:12.835Z,5.30
2018-12-11T11:13:41.087Z,5.30
2018-12-11T11:16:15.685Z,5.30
2018-12-11T11:18:44.765Z,5.30
2018-12-11T11:21:12.921Z,5.40
2018-12-11T11:23:41.339Z,5.40
2018-12-11T11:26:09.629Z,5.50
2018-12-11T11:28:38.012Z,5.50
2018-12-11T11:31:06.316Z,5.70
2018-12-11T11:33:34.477Z,5.80
2018-12-11T11:36:02.637Z,5.80
2018-12-11T11:38:30.919Z,5.90
2018-12-11T11:40:59.138Z,5.90
2018-12-11T11:43:27.343Z,5.90
2018-12-11T11:45:55.509Z,6.00
2018-12-11T11:48:23.791Z,6.10
2018-12-11T11:50:51.969Z,6.00
2018-12-11T11:53:20.301Z,5.90
2018-12-11T11:55:48.623Z,6.00
2018-12-11T11:58:16.869Z,5.90
2018-12-11T12:00:45.106Z,5.90
2018-12-11T12:03:13.301Z,5.80
2018-12-11T12:05:41.581Z,5.90
2018-12-11T12:08:09.812Z,6.10
2018-12-11T12:10:37.999Z,6.00
2018-12-11T12:13:06.318Z,6.00
2018-12-11T12:15:34.545Z,5.90
2018-12-11T12:18:02.853Z,5.90
2018-12-11T12:20:31.098Z,6.00
2018-12-11T12:23:02.513Z,6.10
2018-12-11T12:25:30.685Z,6.10
2018-12-11T12:27:58.889Z,6.10
2018-12-11T12:30:28.380Z,6.10
2018-12-11T12:32:56.587Z,6.20
2018-12-11T12:35:24.754Z,6.30
2018-12-11T12:37:53.146Z,6.30
2018-12-11T12:40:21.502Z,6.30
2018-12-11T12:42:49.698Z,6.40
2018-12-11T12:45:17.987Z,6.40
2018-12-11T12:47:46.311Z,6.30
2018-12-11T12:50:14.827Z,6.30
2018-12-11T12:52:43.018Z,6.30
2018-12-11T12:55:11.306Z,6.40
2018-12-11T12:57:39.467Z,6.50
2018-12-11T13:00:08.754Z,6.70
2018-12-11T13:02:37.138Z,6.70
2018-12-11T13:05:05.870Z,6.80
2018-12-11T13:07:34.117Z,6.80
2018-12-11T13:10:02.471Z,6.80
2018-12-11T13:12:30.769Z,6.80
2018-12-11T13:20:10.953Z,6.80
2018-12-11T13:22:39.396Z,6.70
2018-12-11T13:25:07.644Z,6.70
2018-12-11T13:27:35.973Z,6.70
2018-12-11T13:30:04.784Z,6.50
2018-12-11T13:32:32.995Z,6.40
2018-12-11T13:35:01.264Z,6.40
2018-12-11T13:37:29.697Z,6.50
2018-12-11T13:39:58.015Z,6.50
2018-12-11T13:42:26.372Z,6.50
2018-12-11T13:44:54.655Z,6.50
2018-12-11T13:47:22.920Z,6.50
2018-12-11T13:49:51.381Z,6.60
2018-12-11T13:52:19.679Z,6.50
2018-12-11T13:54:48.237Z,6.40
2018-12-11T13:57:16.695Z,6.40
2018-12-11T13:59:45.055Z,6.30
2018-12-11T14:02:14.727Z,6.20
2018-12-11T14:04:43.410Z,6.30
2018-12-11T14:07:11.688Z,6.30
2018-12-11T14:09:41.689Z,6.30
2018-12-11T14:12:10.811Z,6.30
2018-12-11T14:17:07.351Z,6.40
2018-12-11T14:19:35.824Z,6.40
2018-12-11T14:22:04.328Z,6.30
2018-12-11T14:27:00.668Z,6.30
2018-12-11T14:29:29.091Z,6.20
2018-12-11T14:31:57.549Z,6.20
2018-12-11T14:34:25.984Z,6.10
2018-12-11T14:36:54.231Z,6.10
2018-12-11T14:39:23.853Z,6.00
2018-12-11T14:41:53.249Z,6.00
2018-12-11T14:44:21.612Z,6.00
2018-12-11T14:46:49.918Z,5.90
2018-12-11T14:49:18.150Z,5.90
2018-12-11T14:51:47.034Z,5.90
2018-12-11T14:54:15.325Z,5.80
2018-12-11T14:56:43.562Z,5.80
2018-12-11T14:59:11.867Z,5.80
2018-12-11T15:01:40.213Z,5.80
2018-12-11T15:04:08.593Z,5.80
2018-12-11T15:06:37.195Z,5.70
2018-12-11T15:09:13.152Z,5.70
2018-12-11T15:11:41.681Z,5.70
2018-12-11T15:14:10.011Z,5.60
2018-12-11T15:16:39.375Z,5.60
2018-12-11T15:19:07.693Z,5.60
2018-12-11T15:21:36.153Z,5.50
2018-12-11T15:24:04.534Z,5.50
2018-12-11T15:26:32.948Z,5.40
2018-12-11T15:31:30.338Z,5.40
2018-12-11T15:33:58.611Z,5.40
2018-12-11T15:36:27.165Z,5.40
2018-12-11T15:38:55.659Z,5.30
2018-12-11T15:41:23.969Z,5.20
2018-12-11T15:43:52.209Z,5.20
2018-12-11T15:46:21.088Z,5.20
2018-12-11T15:48:49.362Z,5.20
2018-12-11T15:51:17.882Z,5.20
2018-12-11T15:53:46.157Z,5.20
2018-12-11T15:56:14.661Z,5.10
2018-12-11T15:58:43.099Z,5.20
2018-12-11T16:01:11.496Z,5.20
2018-12-11T16:03:39.757Z,5.20
2018-12-11T16:06:08.143Z,5.20
2018-12-11T16:08:36.485Z,5.10
2018-12-11T16:11:05.163Z,5.10
2018-12-11T16:13:33.690Z,5.10
2018-12-11T16:16:01.960Z,5.10
2018-12-11T16:18:30.602Z,5.10
2018-12-11T16:20:59.002Z,5.10
2018-12-11T16:23:27.395Z,5.10
2018-12-11T16:25:55.927Z,5.10
2018-12-11T16:28:24.398Z,5.10
2018-12-11T16:30:52.709Z,5.10
2018-12-11T16:33:21.120Z,5.00
2018-12-11T16:35:49.570Z,5.00
2018-12-11T16:38:17.871Z,5.00
2018-12-11T16:40:46.363Z,5.00
2018-12-11T16:43:14.769Z,5.00
2018-12-11T16:45:43.075Z,5.00
2018-12-11T16:48:11.457Z,4.90
2018-12-11T16:50:39.751Z,4.90
2018-12-11T16:53:08.028Z,4.80
2018-12-11T16:55:37.120Z,4.80
2018-12-11T16:58:05.555Z,4.90
2018-12-11T17:00:33.879Z,4.80
2018-12-11T17:03:02.190Z,4.80
2018-12-11T17:05:30.577Z,4.80
2018-12-11T17:07:58.923Z,4.70
2018-12-11T17:10:28.740Z,4.70
2018-12-11T17:12:57.238Z,4.70
2018-12-11T17:15:27.172Z,4.70
2018-12-11T17:17:55.509Z,4.70
2018-12-11T17:20:23.792Z,4.60
2018-12-11T17:22:52.103Z,4.60
2018-12-11T17:25:20.379Z,4.60
2018-12-11T17:27:48.859Z,4.60
2018-12-11T17:30:17.120Z,4.60
2018-12-11T17:32:45.482Z,4.60
2018-12-11T17:35:13.914Z,4.60
2018-12-11T17:37:42.275Z,4.60
2018-12-11T17:40:11.451Z,4.60
2018-12-11T17:42:40.176Z,4.60
2018-12-11T17:45:08.662Z,4.60
2018-12-11T17:47:37.314Z,4.60
2018-12-11T17:50:07.290Z,4.60
2018-12-11T17:52:35.739Z,4.60
2018-12-11T17:55:04.244Z,4.60
2018-12-11T18:00:00.627Z,4.60
2018-12-11T18:02:33.133Z,4.60
2018-12-11T18:05:01.633Z,4.60
2018-12-11T18:07:29.900Z,4.70
2018-12-11T18:09:58.361Z,4.70
2018-12-11T18:12:26.917Z,4.80
2018-12-11T18:14:55.304Z,4.80
2018-12-11T18:17:23.771Z,4.80
2018-12-11T18:19:52.294Z,4.80
2018-12-11T18:22:22.472Z,4.90
2018-12-11T18:24:50.792Z,4.90
2018-12-11T18:27:19.243Z,4.90
2018-12-11T18:29:47.545Z,4.90
2018-12-11T18:32:16.011Z,4.90
2018-12-11T18:34:45.489Z,4.90
2018-12-11T18:37:14.190Z,4.90
2018-12-11T18:39:42.498Z,5.00
2018-12-11T18:42:10.874Z,5.00
2018-12-11T18:44:39.424Z,5.00
2018-12-11T18:47:07.677Z,5.00
2018-12-11T18:49:36.010Z,5.00
2018-12-11T18:52:04.251Z,5.00
2018-12-11T18:54:32.576Z,5.00
2018-12-11T18:57:01.072Z,5.00
2018-12-11T18:59:29.379Z,5.00
2018-12-11T19:01:57.719Z,5.00
2018-12-11T19:04:26.820Z,5.00
2018-12-11T19:06:55.419Z,5.00
2018-12-11T19:09:23.756Z,5.10
2018-12-11T19:11:51.995Z,4.50
2018-12-11T19:14:20.292Z,5.10
2018-12-11T19:16:48.767Z,5.00
2018-12-11T19:19:17.033Z,5.10
2018-12-11T19:21:45.367Z,5.10
2018-12-11T19:24:54.173Z,5.10
2018-12-11T19:27:22.801Z,5.20
2018-12-11T19:29:51.203Z,5.10
2018-12-11T19:32:19.783Z,5.10
2018-12-11T19:34:49.624Z,5.20
2018-12-11T19:37:18.096Z,5.10
2018-12-11T19:39:46.583Z,5.10
2018-12-11T19:42:15.276Z,5.10
2018-12-11T19:47:11.955Z,5.10
2018-12-11T19:49:40.305Z,5.10
2018-12-11T19:52:09.373Z,5.10
2018-12-11T19:54:37.727Z,5.10
2018-12-11T19:57:06.080Z,5.10
2018-12-11T19:59:34.343Z,5.10
2018-12-11T20:02:02.679Z,5.10
2018-12-11T20:04:31.025Z,5.10
2018-12-11T20:06:59.327Z,5.10
2018-12-11T20:09:27.806Z,5.10
2018-12-11T20:11:56.074Z,5.20
2018-12-11T20:14:24.711Z,5.20
2018-12-11T20:16:53.179Z,5.20
2018-12-11T20:19:21.744Z,5.20
2018-12-11T20:21:50.109Z,5.30
2018-12-11T20:24:18.521Z,5.30
2018-12-11T20:26:47.028Z,5.30
2018-12-11T20:29:15.549Z,5.30
2018-12-11T20:31:43.876Z,5.30
2018-12-11T20:34:12.180Z,5.30
2018-12-11T20:36:40.406Z,5.30
2018-12-11T20:39:08.838Z,5.30
2018-12-11T20:41:37.142Z,5.30
2018-12-11T20:44:05.651Z,5.20
2018-12-11T20:46:33.955Z,5.20
2018-12-11T20:49:02.471Z,5.30
2018-12-11T20:51:30.762Z,5.30
2018-12-11T20:53:59.219Z,5.30
2018-12-11T20:56:27.471Z,5.30
2018-12-11T20:58:55.739Z,5.30
2018-12-11T21:01:24.226Z,5.30
2018-12-11T21:03:52.583Z,5.30
2018-12-11T21:06:20.889Z,5.30
2018-12-11T21:08:49.159Z,5.30
2018-12-11T21:11:17.480Z,5.30
2018-12-11T21:13:45.967Z,5.20
2018-12-11T21:16:14.503Z,5.20
2018-12-11T21:18:43.108Z,5.30
2018-12-11T21:21:11.945Z,5.30
2018-12-11T21:23:40.455Z,5.30
2018-12-11T21:26:09.446Z,5.30
2018-12-11T21:28:37.879Z,5.30
2018-12-11T21:31:06.223Z,5.40
2018-12-11T21:33:34.859Z,5.40
2018-12-11T21:36:03.232Z,5.40
2018-12-11T21:38:31.582Z,5.40
2018-12-11T21:40:59.852Z,5.40
2018-12-11T21:43:28.135Z,5.40
2018-12-11T21:45:56.554Z,5.40
2018-12-11T21:48:24.779Z,5.40
2018-12-11T21:50:53.166Z,5.40
2018-12-11T21:53:21.475Z,5.30
2018-12-11T21:55:49.816Z,5.30
2018-12-11T21:58:18.278Z,5.30
2018-12-11T22:00:46.860Z,5.30
2018-12-11T22:03:15.412Z,5.20
2018-12-11T22:05:43.942Z,5.20
2018-12-11T22:08:12.227Z,5.20
2018-12-11T22:10:40.528Z,5.10
2018-12-11T22:13:10.307Z,5.10
2018-12-11T22:15:38.596Z,5.00
2018-12-11T22:18:06.901Z,5.00
2018-12-11T22:20:35.271Z,5.00
2018-12-11T22:23:09.054Z,5.00
2018-12-11T22:25:37.512Z,4.90
2018-12-11T22:28:05.931Z,4.90
2018-12-11T22:30:34.175Z,4.80
2018-12-11T22:33:02.449Z,4.80
2018-12-11T22:35:30.749Z,4.80
2018-12-11T22:37:59.202Z,4.80
2018-12-11T22:40:27.776Z,4.80
2018-12-11T22:42:56.243Z,4.80
2018-12-11T22:45:24.566Z,4.80
2018-12-11T22:47:53.072Z,4.80
2018-12-11T22:50:21.446Z,4.80
2018-12-11T22:52:49.805Z,4.80
2018-12-11T22:55:18.088Z,4.80
2018-12-11T22:57:46.455Z,4.80
2018-12-11T23:00:14.861Z,4.80
2018-12-11T23:02:43.201Z,4.80
2018-12-11T23:05:11.530Z,4.80
2018-12-11T23:07:40.511Z,4.70
2018-12-11T23:10:08.734Z,4.70
2018-12-11T23:12:36.984Z,4.80
2018-12-11T23:15:06.529Z,4.70
2018-12-11T23:17:34.895Z,4.70
2018-12-11T23:20:03.295Z,4.70
2018-12-11T23:22:31.586Z,4.70
2018-12-11T23:25:00.128Z,4.70
2018-12-11T23:27:28.616Z,4.70
2018-12-11T23:29:56.966Z,4.70
2018-12-11T23:32:25.258Z,4.70
2018-12-11T23:34:54.564Z,4.60
2018-12-11T23:37:22.863Z,4.60
2018-12-11T23:39:51.198Z,4.60
2018-12-11T23:42:19.476Z,4.60
2018-12-11T23:44:47.778Z,4.60
2018-12-11T23:47:16.112Z,4.60
2018-12-11T23:49:44.465Z,4.60
2018-12-11T23:52:12.881Z,4.50
2018-12-11T23:54:41.156Z,4.50
2018-12-11T23:57:09.408Z,4.50
2018-12-11T23:59:37.683Z,4.50
